Time;durP1;ratioP1;P1;durP2;ratioP2;P2;SDS_P1;SDS_P2;PMS_P1;PMS_P2;Temp;Humidity;BMP_temperature;BMP_pressure;BME280_temperature;BME280_humidity;BME280_pressure;Samples;Min_cycle;Max_cycle;Signal;HPM_P1;HPM_P2
2023/01/08 00:02:02;;;;;;;6.53;4.10;;;-5.20;83.40;;;;;;1924623;74;21442;-54
2023/01/08 00:04:31;;;;;;;4.78;3.80;;;-5.20;82.80;;;;;;1924715;74;21002;-52
2023/01/08 00:07:00;;;;;;;6.50;2.85;;;-5.20;83.10;;;;;;1924708;74;21096;-54
2023/01/08 00:09:29;;;;;;;6.53;3.90;;;-5.20;83.00;;;;;;1924721;74;21089;-53
2023/01/08 00:11:58;;;;;;;4.65;4.25;;;-5.20;83.00;;;;;;1924663;74;21441;-52
2023/01/08 00:14:27;;;;;;;4.90;3.47;;;-5.20;83.30;;;;;;1924694;74;21058;-53
2023/01/08 00:16:56;;;;;;;3.35;3.05;;;-5.30;83.30;;;;;;1924659;74;21026;-53
2023/01/08 00:19:25;;;;;;;5.47;3.17;;;-5.30;83.40;;;;;;1924573;74;21034;-55
2023/01/08 00:21:55;;;;;;;3.98;3.37;;;-5.30;83.70;;;;;;1924641;74;21139;-53
2023/01/08 00:24:24;;;;;;;7.15;3.70;;;-5.20;83.40;;;;;;1924620;74;21015;-55
2023/01/08 00:26:53;;;;;;;7.33;3.72;;;-5.20;83.80;;;;;;1924612;74;20982;-53
2023/01/08 00:29:22;;;;;;;10.28;4.55;;;-5.10;83.80;;;;;;1924632;74;21003;-53
2023/01/08 00:31:51;;;;;;;5.00;2.70;;;-5.10;83.00;;;;;;1924595;74;21011;-53
2023/01/08 00:34:21;;;;;;;3.60;2.77;;;-5.20;82.80;;;;;;1903814;74;21077;-52
2023/01/08 00:36:50;;;;;;;7.42;5.17;;;-5.20;83.50;;;;;;1924556;74;21014;-53
2023/01/08 00:39:19;;;;;;;1.77;1.62;;;-5.20;83.40;;;;;;1924691;74;21080;-52
2023/01/08 00:41:48;;;;;;;5.60;3.95;;;-5.20;83.10;;;;;;1924601;74;21007;-53
2023/01/08 00:44:17;;;;;;;5.70;4.17;;;-5.30;82.40;;;;;;1924582;74;21069;-55
2023/01/08 00:46:47;;;;;;;3.72;2.40;;;-5.40;82.70;;;;;;1924578;74;21027;-50
2023/01/08 00:49:16;;;;;;;4.20;2.85;;;-5.50;83.00;;;;;;1908936;74;21102;-52
2023/01/08 00:51:45;;;;;;;7.05;3.95;;;-5.50;83.20;;;;;;1905238;75;21538;-51
2023/01/08 00:54:14;;;;;;;4.45;2.27;;;-5.60;83.40;;;;;;1905192;74;21101;-52
2023/01/08 00:56:43;;;;;;;5.22;3.52;;;-5.60;82.80;;;;;;1905206;75;20991;-54
2023/01/08 00:59:12;;;;;;;6.55;2.90;;;-5.70;83.40;;;;;;1905174;75;21069;-53
2023/01/08 01:01:42;;;;;;;8.00;3.33;;;-5.70;83.20;;;;;;1905232;75;21099;-54
2023/01/08 01:04:11;;;;;;;3.58;2.72;;;-5.70;83.00;;;;;;1905188;75;21032;-51
2023/01/08 01:06:40;;;;;;;5.65;3.58;;;-5.80;83.30;;;;;;1905318;75;20999;-54
2023/01/08 01:09:10;;;;;;;8.30;4.22;;;-5.90;83.60;;;;;;1905200;75;21011;-54
2023/01/08 01:11:39;;;;;;;8.43;3.25;;;-5.90;83.70;;;;;;1905186;75;21007;-54
2023/01/08 01:14:09;;;;;;;7.10;3.87;;;-5.80;84.00;;;;;;1905288;75;21504;-53
2023/01/08 01:16:40;;;;;;;3.33;2.35;;;-5.80;83.50;;;;;;1905177;75;21025;-54
2023/01/08 01:19:08;;;;;;;4.30;3.15;;;-5.70;83.50;;;;;;1905251;75;21039;-55
2023/01/08 01:21:38;;;;;;;3.37;3.08;;;-5.70;82.70;;;;;;1905211;75;21136;-52
2023/01/08 01:24:10;;;;;;;7.72;3.52;;;-5.70;82.80;;;;;;1905137;75;21023;-53
2023/01/08 01:26:39;;;;;;;21.25;5.03;;;-5.70;82.90;;;;;;1905194;75;21063;-54
2023/01/08 01:29:08;;;;;;;4.03;3.55;;;-5.70;83.20;;;;;;1905154;75;21020;-54
2023/01/08 01:31:38;;;;;;;2.67;2.47;;;-5.70;82.80;;;;;;1905199;75;21101;-52
2023/01/08 01:34:07;;;;;;;2.95;2.47;;;-5.70;82.50;;;;;;1905161;75;21031;-53
2023/01/08 01:36:37;;;;;;;9.53;4.12;;;-5.80;82.50;;;;;;1905100;75;21035;-53
2023/01/08 01:39:06;;;;;;;8.28;2.65;;;-5.90;82.90;;;;;;1905158;75;21066;-51
2023/01/08 01:41:44;;;;;;;5.55;3.77;;;-5.90;83.30;;;;;;1905313;75;21097;-54
2023/01/08 01:44:44;;;;;;;3.02;2.65;;;-5.80;83.20;;;;;;1905296;75;21023;-53
2023/01/08 01:47:31;;;;;;;5.80;3.33;;;-5.80;83.20;;;;;;1905152;75;21069;-54
2023/01/08 01:50:21;;;;;;;3.77;3.00;;;-5.80;82.80;;;;;;1905325;75;21039;-53
2023/01/08 01:53:01;;;;;;;4.62;3.02;;;-5.90;83.20;;;;;;1905303;75;21019;-54
2023/01/08 01:55:31;;;;;;;3.77;2.92;;;-5.90;83.50;;;;;;1905277;75;21208;-54
2023/01/08 01:58:12;;;;;;;3.67;3.37;;;-6.00;83.60;;;;;;1905296;74;21028;-55
2023/01/08 02:00:42;;;;;;;4.47;2.70;;;-6.00;83.80;;;;;;1905339;75;20975;-54
2023/01/08 02:03:13;;;;;;;12.10;4.47;;;-6.10;83.90;;;;;;1905286;75;21023;-54
2023/01/08 02:05:45;;;;;;;2.98;1.95;;;-6.10;83.80;;;;;;1905280;75;21015;-54
2023/01/08 02:08:17;;;;;;;2.47;2.05;;;-6.10;84.30;;;;;;1904937;74;21043;-53
2023/01/08 02:10:54;;;;;;;5.58;3.83;;;-6.10;84.30;;;;;;1903976;74;21512;-51
2023/01/08 02:13:29;;;;;;;4.50;3.22;;;-6.00;84.20;;;;;;1904464;74;21039;-55
2023/01/08 02:16:04;;;;;;;;;;;-6.10;83.80;;;;;;1908270;75;21097;-54
2023/01/08 02:18:36;;;;;;;2.70;2.50;;;-6.20;84.00;;;;;;1904562;74;20430;-52
2023/01/08 02:21:15;;;;;;;2.80;2.42;;;-6.20;84.10;;;;;;1904360;74;21087;-52
2023/01/08 02:23:44;;;;;;;6.53;3.60;;;-6.30;83.90;;;;;;1904154;74;21047;-54
2023/01/08 02:26:21;;;;;;;4.97;3.22;;;-6.30;83.80;;;;;;1905244;74;21085;-53
2023/01/08 02:28:53;;;;;;;7.33;4.17;;;-6.50;83.90;;;;;;1905292;75;21105;-51
2023/01/08 02:31:25;;;;;;;3.22;2.62;;;-6.50;83.80;;;;;;1905337;75;21039;-51
2023/01/08 02:33:54;;;;;;;6.17;4.12;;;-6.60;83.70;;;;;;1905287;75;21082;-53
2023/01/08 02:36:28;;;;;;;7.22;3.70;;;-6.70;83.90;;;;;;1905343;75;21069;-53
2023/01/08 02:39:35;;;;;;;4.40;2.62;;;-6.70;83.90;;;;;;1905551;75;21101;-54
2023/01/08 02:42:25;;;;;;;2.80;2.47;;;-6.70;84.10;;;;;;1811655;79;21100;-54
2023/01/08 02:45:11;;;;;;;6.80;3.92;;;-6.70;84.80;;;;;;1811553;79;21054;-52
2023/01/08 02:47:46;;;;;;;3.20;2.52;;;-6.70;84.30;;;;;;1870710;74;21071;-53
2023/01/08 02:50:20;;;;;;;5.28;3.98;;;-6.60;84.10;;;;;;1919396;74;21512;-53
2023/01/08 02:53:08;;;;;;;4.60;3.83;;;-6.70;84.10;;;;;;1924793;74;21038;-52
2023/01/08 02:55:39;;;;;;;7.12;4.75;;;-6.70;83.50;;;;;;1887683;76;21017;-50
2023/01/08 02:58:08;;;;;;;2.52;2.33;;;-6.70;84.10;;;;;;1877959;76;21035;-52
2023/01/08 03:00:40;;;;;;;2.00;1.85;;;-6.70;84.00;;;;;;1877962;76;21121;-53
2023/01/08 03:03:21;;;;;;;4.05;2.90;;;-6.70;83.50;;;;;;1878065;76;21457;-54
2023/01/08 03:05:52;;;;;;;3.22;2.92;;;-6.90;83.30;;;;;;1877979;76;21473;-52
2023/01/08 03:08:22;;;;;;;7.37;4.15;;;-6.90;84.00;;;;;;1877919;76;21014;-53
2023/01/08 03:10:56;;;;;;;3.75;3.45;;;-7.00;83.90;;;;;;1878033;76;21023;-53
2023/01/08 03:13:28;;;;;;;9.80;5.67;;;-6.90;84.10;;;;;;1878142;76;21148;-54
2023/01/08 03:16:00;;;;;;;6.05;3.87;;;-7.00;83.80;;;;;;1877977;76;21035;-52
2023/01/08 03:18:33;;;;;;;5.75;4.17;;;-7.00;84.20;;;;;;1878074;76;21023;-53
2023/01/08 03:21:04;;;;;;;7.08;4.40;;;-7.00;84.10;;;;;;1878018;76;21527;-55
2023/01/08 03:23:35;;;;;;;6.47;2.90;;;-7.10;83.70;;;;;;1877970;76;21458;-52
2023/01/08 03:26:06;;;;;;;5.75;4.60;;;-7.10;84.00;;;;;;1878104;76;20999;-53
2023/01/08 03:28:38;;;;;;;5.78;4.55;;;-7.20;84.30;;;;;;1877843;76;20995;-53
2023/01/08 03:31:08;;;;;;;6.30;3.52;;;-7.30;84.60;;;;;;1877861;76;21055;-53
2023/01/08 03:33:37;;;;;;;6.15;4.00;;;-7.30;84.80;;;;;;1877990;76;21030;-53
2023/01/08 03:36:08;;;;;;;3.72;2.45;;;-7.30;85.30;;;;;;1877915;76;21074;-51
2023/01/08 03:38:40;;;;;;;4.30;2.70;;;-7.20;85.50;;;;;;1877990;76;21089;-53
2023/01/08 03:41:11;;;;;;;5.10;3.22;;;-7.20;85.00;;;;;;1876755;76;21563;-52
2023/01/08 03:43:41;;;;;;;11.45;6.80;;;-7.20;84.80;;;;;;1877819;76;21058;-53
2023/01/08 03:46:12;;;;;;;2.90;2.70;;;-7.20;85.00;;;;;;1877969;76;21159;-53
2023/01/08 03:48:43;;;;;;;4.37;2.67;;;-7.10;85.40;;;;;;1875627;76;21081;-52
2023/01/08 03:51:12;;;;;;;11.12;5.75;;;-7.00;85.00;;;;;;1864174;76;21129;-52
2023/01/08 03:53:41;;;;;;;10.45;5.60;;;-7.00;83.70;;;;;;1905274;75;21007;-51
2023/01/08 03:56:10;;;;;;;3.33;3.02;;;-7.00;84.20;;;;;;1905170;75;21058;-50
2023/01/08 03:58:39;;;;;;;7.30;4.62;;;-7.10;83.70;;;;;;1905231;75;21059;-50
2023/01/08 04:01:08;;;;;;;4.20;3.30;;;-7.10;83.50;;;;;;1905267;75;21007;-51
2023/01/08 04:03:38;;;;;;;6.75;2.52;;;-7.20;84.50;;;;;;1905348;75;21031;-54
2023/01/08 04:06:07;;;;;;;4.08;3.67;;;-7.10;84.30;;;;;;1905367;75;21043;-54
2023/01/08 04:08:36;;;;;;;5.35;3.87;;;-7.10;85.00;;;;;;1905207;75;21054;-52
2023/01/08 04:11:05;;;;;;;4.17;3.70;;;-7.10;84.00;;;;;;1905346;75;21504;-54
2023/01/08 04:13:35;;;;;;;7.00;4.05;;;-7.10;83.50;;;;;;1905209;75;21007;-53
2023/01/08 04:16:04;;;;;;;7.15;4.58;;;-7.20;83.30;;;;;;1905238;75;21083;-53
2023/01/08 04:18:33;;;;;;;2.40;2.08;;;-7.20;84.60;;;;;;1905340;75;21003;-50
2023/01/08 04:21:02;;;;;;;2.45;2.25;;;-7.20;83.10;;;;;;1905246;75;21003;-52
2023/01/08 04:23:31;;;;;;;8.90;5.92;;;-7.30;83.00;;;;;;1905178;75;21003;-54
2023/01/08 04:26:01;;;;;;;4.50;2.67;;;-7.40;83.60;;;;;;1905199;75;20999;-50
2023/01/08 04:28:31;;;;;;;7.92;4.92;;;-7.40;83.90;;;;;;1905177;75;21462;-53
2023/01/08 04:31:02;;;;;;;5.42;2.98;;;-7.40;83.70;;;;;;1905340;75;21039;-53
2023/01/08 04:33:31;;;;;;;4.12;2.65;;;-7.30;83.90;;;;;;1905346;75;21023;-52
2023/01/08 04:36:01;;;;;;;3.92;3.22;;;-7.30;83.40;;;;;;1905154;75;21110;-54
2023/01/08 04:38:30;;;;;;;1.72;1.62;;;-7.40;82.20;;;;;;1905304;75;21085;-52
2023/01/08 04:41:00;;;;;;;4.47;4.05;;;-7.50;82.60;;;;;;1905238;75;21023;-51
2023/01/08 04:43:30;;;;;;;4.95;2.80;;;-7.60;83.10;;;;;;1905227;74;21015;-52
2023/01/08 04:46:00;;;;;;;8.55;2.22;;;-7.60;82.00;;;;;;1905202;75;20983;-53
2023/01/08 04:48:30;;;;;;;2.33;2.15;;;-7.70;82.50;;;;;;1905139;75;21008;-54
2023/01/08 04:51:00;;;;;;;5.05;2.95;;;-7.70;83.40;;;;;;1914726;74;21038;-54
2023/01/08 04:53:30;;;;;;;1.80;1.70;;;-7.70;83.50;;;;;;1924609;74;21007;-53
2023/01/08 04:56:04;;;;;;;12.45;2.98;;;-7.70;83.70;;;;;;1924665;74;21081;-55
2023/01/08 04:58:34;;;;;;;3.10;2.42;;;-7.70;83.10;;;;;;1924814;74;21015;-53
2023/01/08 05:01:11;;;;;;;3.77;3.17;;;-7.70;82.60;;;;;;1924550;74;21116;-53
2023/01/08 05:03:40;;;;;;;2.45;2.25;;;-7.80;82.70;;;;;;1924670;74;21434;-53
2023/01/08 05:06:09;;;;;;;5.62;3.80;;;-7.90;82.60;;;;;;1924677;74;21014;-54
2023/01/08 05:08:39;;;;;;;3.90;2.75;;;-7.90;83.50;;;;;;1924503;74;21054;-51
2023/01/08 05:11:08;;;;;;;4.67;2.92;;;-7.90;83.60;;;;;;1924547;74;21015;-52
2023/01/08 05:13:40;;;;;;;4.95;3.15;;;-7.80;83.20;;;;;;1924650;74;21018;-52
2023/01/08 05:16:09;;;;;;;4.53;2.85;;;-7.90;83.10;;;;;;1924545;74;21076;-53
2023/01/08 05:18:38;;;;;;;3.05;2.72;;;-8.00;83.20;;;;;;1924666;74;21057;-53
2023/01/08 05:21:07;;;;;;;3.37;2.92;;;-8.00;83.70;;;;;;1924516;74;21072;-53
2023/01/08 05:23:36;;;;;;;5.30;4.15;;;-8.00;84.10;;;;;;1924495;74;21066;-50
2023/01/08 05:26:06;;;;;;;8.35;5.03;;;-7.90;83.60;;;;;;1924743;74;21145;-54
2023/01/08 05:28:35;;;;;;;12.35;3.83;;;-8.00;83.80;;;;;;1924631;74;21085;-53
2023/01/08 05:31:04;;;;;;;5.35;4.85;;;-7.90;84.30;;;;;;1924700;74;21003;-54
2023/01/08 05:33:34;;;;;;;3.65;2.72;;;-7.80;85.40;;;;;;1924651;74;21054;-54
2023/01/08 05:36:05;;;;;;;3.22;2.92;;;-7.80;85.10;;;;;;1924638;74;21018;-51
2023/01/08 05:38:34;;;;;;;6.35;4.70;;;-7.70;83.70;;;;;;1924678;74;21104;-53
2023/01/08 05:41:04;;;;;;;4.97;4.30;;;-7.80;83.60;;;;;;1924688;74;21113;-53
2023/01/08 05:43:34;;;;;;;4.20;3.83;;;-7.90;83.90;;;;;;1924657;74;21078;-54
2023/01/08 05:46:04;;;;;;;4.40;3.70;;;-7.80;85.20;;;;;;1924649;74;21018;-54
2023/01/08 05:48:34;;;;;;;9.60;3.65;;;-7.80;84.10;;;;;;1924587;74;21015;-55
2023/01/08 05:51:04;;;;;;;5.25;4.08;;;-7.80;84.20;;;;;;1919673;74;21055;-55
2023/01/08 05:53:33;;;;;;;6.00;4.78;;;-7.90;84.60;;;;;;1905259;74;21524;-55
2023/01/08 05:56:05;;;;;;;9.50;5.05;;;-7.80;84.90;;;;;;1905264;75;20996;-51
2023/01/08 05:58:34;;;;;;;10.32;4.47;;;-7.80;84.80;;;;;;1905272;74;21027;-54
2023/01/08 06:01:05;;;;;;;4.33;4.00;;;-7.80;85.30;;;;;;1905595;75;21000;-55
2023/01/08 06:03:34;;;;;;;7.30;5.08;;;-7.80;84.80;;;;;;1905271;75;21023;-52
2023/01/08 06:06:05;;;;;;;2.42;2.17;;;-7.70;86.00;;;;;;1905294;75;21520;-53
2023/01/08 06:08:35;;;;;;;7.70;4.03;;;-7.70;85.10;;;;;;1905231;75;21078;-55
2023/01/08 06:11:06;;;;;;;17.30;6.28;;;-7.60;85.30;;;;;;1905259;75;21003;-54
2023/01/08 06:13:36;;;;;;;6.50;4.03;;;-7.70;84.40;;;;;;1905263;74;21129;-55
2023/01/08 06:16:06;;;;;;;7.37;5.00;;;-7.70;84.80;;;;;;1905222;75;21089;-54
2023/01/08 06:18:35;;;;;;;7.08;3.00;;;-7.70;85.20;;;;;;1905312;75;21020;-53
2023/01/08 06:21:05;;;;;;;2.87;2.33;;;-7.70;85.30;;;;;;1905261;75;21069;-54
2023/01/08 06:23:34;;;;;;;8.38;6.28;;;-7.70;85.90;;;;;;1905240;75;21130;-55
2023/01/08 06:26:06;;;;;;;4.00;3.52;;;-7.70;86.00;;;;;;1905388;75;21061;-54
2023/01/08 06:28:36;;;;;;;3.02;2.70;;;-7.60;85.50;;;;;;1905232;74;21020;-54
2023/01/08 06:31:05;;;;;;;3.92;3.47;;;-7.50;85.90;;;;;;1905288;75;21031;-53
2023/01/08 06:33:34;;;;;;;3.25;2.02;;;-7.50;84.80;;;;;;1905391;75;21031;-54
2023/01/08 06:36:04;;;;;;;2.08;1.98;;;-7.50;84.60;;;;;;1905348;75;21083;-53
2023/01/08 06:38:34;;;;;;;3.80;3.45;;;-7.40;85.50;;;;;;1905367;75;21442;-54
2023/01/08 06:41:05;;;;;;;4.50;2.72;;;-7.30;85.30;;;;;;1905207;75;20999;-55
2023/01/08 06:43:35;;;;;;;3.42;3.00;;;-7.20;84.50;;;;;;1905358;75;21007;-55
2023/01/08 06:46:05;;;;;;;5.22;4.35;;;-7.20;84.70;;;;;;1905266;75;21490;-55
2023/01/08 06:48:34;;;;;;;5.85;4.58;;;-7.20;83.80;;;;;;1905240;74;20995;-53
2023/01/08 06:51:05;;;;;;;5.75;3.85;;;-7.20;83.30;;;;;;1905337;75;21071;-54
2023/01/08 06:53:34;;;;;;;4.67;3.50;;;-7.30;83.60;;;;;;1905169;74;21109;-55
2023/01/08 06:56:06;;;;;;;4.50;3.72;;;-7.30;84.40;;;;;;1905203;75;21078;-56
2023/01/08 06:58:35;;;;;;;7.37;4.92;;;-7.30;83.80;;;;;;1905199;75;21536;-54
2023/01/08 07:01:04;;;;;;;5.20;4.47;;;-7.30;84.00;;;;;;1905365;75;21081;-54
2023/01/08 07:03:33;;;;;;;15.83;6.00;;;-7.40;83.90;;;;;;1905229;75;21083;-54
2023/01/08 07:06:03;;;;;;;7.42;4.85;;;-7.30;84.40;;;;;;1905207;75;21035;-54
2023/01/08 07:08:32;;;;;;;6.17;4.35;;;-7.20;84.70;;;;;;1905178;75;21023;-53
2023/01/08 07:11:05;;;;;;;8.43;5.33;;;-7.10;84.80;;;;;;1905240;75;21035;-54
2023/01/08 07:13:34;;;;;;;8.40;4.85;;;-7.10;83.80;;;;;;1905167;75;21032;-54
2023/01/08 07:16:07;;;;;;;12.60;6.28;;;-7.00;84.30;;;;;;1905188;75;20998;-52
2023/01/08 07:18:36;;;;;;;2.27;2.08;;;-7.00;83.80;;;;;;1905183;75;21427;-54
2023/01/08 07:21:07;;;;;;;3.17;2.95;;;-6.90;84.40;;;;;;1905280;75;21003;-54
2023/01/08 07:23:37;;;;;;;11.83;6.25;;;-6.90;83.20;;;;;;1905209;75;20979;-55
2023/01/08 07:26:07;;;;;;;3.95;3.33;;;-6.90;84.50;;;;;;1905222;75;21011;-55
2023/01/08 07:28:36;;;;;;;4.62;2.33;;;-6.80;84.10;;;;;;1905159;75;21019;-54
2023/01/08 07:31:06;;;;;;;7.17;5.35;;;-6.80;83.70;;;;;;1905195;75;21093;-52
2023/01/08 07:33:35;;;;;;;12.82;6.92;;;-6.80;84.00;;;;;;1905268;75;20995;-54
2023/01/08 07:36:05;;;;;;;7.12;2.62;;;-6.80;83.60;;;;;;1905253;75;21077;-53
2023/01/08 07:38:35;;;;;;;10.08;4.40;;;-6.80;83.20;;;;;;1905218;75;21097;-54
2023/01/08 07:41:04;;;;;;;5.47;4.67;;;-6.90;83.50;;;;;;1905196;75;21015;-54
2023/01/08 07:43:34;;;;;;;9.25;5.47;;;-7.00;84.10;;;;;;1905131;75;21023;-54
2023/01/08 07:46:04;;;;;;;9.90;7.03;;;-7.00;84.10;;;;;;1905266;75;21085;-54
2023/01/08 07:48:33;;;;;;;7.35;3.95;;;-7.10;84.70;;;;;;1905226;75;21110;-53
2023/01/08 07:51:06;;;;;;;8.38;4.65;;;-7.00;84.40;;;;;;1905223;75;21113;-52
2023/01/08 07:53:36;;;;;;;11.38;4.10;;;-7.00;83.40;;;;;;1905289;75;21113;-53
2023/01/08 07:56:07;;;;;;;3.77;3.40;;;-7.00;84.00;;;;;;1905094;74;21027;-53
2023/01/08 07:58:37;;;;;;;5.67;4.28;;;-7.00;84.20;;;;;;1905181;75;20999;-54
2023/01/08 08:01:08;;;;;;;3.87;2.52;;;-7.00;83.80;;;;;;1905340;75;21023;-56
2023/01/08 08:03:39;;;;;;;6.45;4.37;;;-7.00;84.30;;;;;;1905327;75;21442;-53
2023/01/08 08:06:08;;;;;;;6.37;4.70;;;-7.00;84.30;;;;;;1905374;75;21043;-53
2023/01/08 08:08:38;;;;;;;2.70;2.40;;;-7.00;84.50;;;;;;1905320;75;20999;-55
2023/01/08 08:11:07;;;;;;;5.85;3.72;;;-7.00;84.10;;;;;;1905341;75;21102;-54
2023/01/08 08:13:36;;;;;;;3.85;3.05;;;-7.00;84.70;;;;;;1905272;75;21015;-54
2023/01/08 08:16:06;;;;;;;5.20;3.20;;;-7.00;83.70;;;;;;1905303;75;21085;-54
2023/01/08 08:18:34;;;;;;;2.45;2.25;;;-6.90;84.50;;;;;;1905281;75;20979;-54
2023/01/08 08:21:04;;;;;;;8.93;5.25;;;-6.80;84.40;;;;;;1905297;75;21007;-54
2023/01/08 08:23:33;;;;;;;4.67;3.30;;;-6.80;84.40;;;;;;1905190;74;21471;-51
2023/01/08 08:26:04;;;;;;;6.67;5.22;;;-6.70;83.80;;;;;;1905178;75;21462;-53
2023/01/08 08:28:33;;;;;;;15.43;6.70;;;-6.70;82.60;;;;;;1905301;75;20980;-54
2023/01/08 08:31:02;;;;;;;3.72;3.42;;;-6.70;83.60;;;;;;1905223;75;21019;-54
2023/01/08 08:33:31;;;;;;;3.62;2.75;;;-6.70;83.40;;;;;;1905078;75;21039;-54
2023/01/08 08:36:00;;;;;;;4.87;4.20;;;-6.60;83.90;;;;;;1905043;75;21000;-54
2023/01/08 08:38:29;;;;;;;8.68;5.87;;;-6.50;82.40;;;;;;1905116;74;21067;-53
2023/01/08 08:40:58;;;;;;;5.83;3.92;;;-6.60;82.80;;;;;;1905286;75;21438;-55
2023/01/08 08:43:27;;;;;;;6.95;4.78;;;-6.60;82.90;;;;;;1905118;75;21023;-53
2023/01/08 08:45:59;;;;;;;6.55;4.30;;;-6.60;83.90;;;;;;1905093;75;21015;-55
2023/01/08 08:48:28;;;;;;;40.52;7.08;;;-6.50;82.90;;;;;;1905164;75;21427;-53
2023/01/08 08:50:57;;;;;;;7.30;4.22;;;-6.50;83.60;;;;;;1905189;75;21008;-54
2023/01/08 08:53:26;;;;;;;4.72;3.87;;;-6.40;82.70;;;;;;1912690;74;21113;-55
2023/01/08 08:55:58;;;;;;;7.65;3.60;;;-6.40;82.00;;;;;;1924546;74;21055;-55
2023/01/08 08:58:27;;;;;;;7.25;5.20;;;-6.40;82.00;;;;;;1924557;74;21023;-54
2023/01/08 09:00:57;;;;;;;4.00;3.17;;;-6.40;81.80;;;;;;1924783;74;20999;-55
2023/01/08 09:03:26;;;;;;;2.47;2.27;;;-6.40;82.20;;;;;;1924494;74;21069;-54
2023/01/08 09:05:55;;;;;;;4.37;3.90;;;-6.30;81.30;;;;;;1924661;74;21062;-54
2023/01/08 09:08:25;;;;;;;7.05;4.10;;;-6.20;81.60;;;;;;1924747;74;21018;-55
2023/01/08 09:10:54;;;;;;;2.58;2.37;;;-6.10;81.60;;;;;;1924670;74;21018;-54
2023/01/08 09:13:23;;;;;;;5.45;2.42;;;-6.10;80.20;;;;;;1924859;74;21127;-54
2023/01/08 09:15:52;;;;;;;8.23;4.35;;;-6.10;80.70;;;;;;1924759;74;20995;-54
2023/01/08 09:18:21;;;;;;;2.98;2.72;;;-6.00;80.40;;;;;;1924783;74;21092;-54
2023/01/08 09:20:50;;;;;;;6.47;3.40;;;-6.00;79.50;;;;;;1924748;74;21018;-53
2023/01/08 09:23:19;;;;;;;5.17;3.72;;;-6.00;77.80;;;;;;1924665;74;21088;-54
2023/01/08 09:25:48;;;;;;;10.55;3.72;;;-5.90;77.70;;;;;;1924598;74;21092;-54
2023/01/08 09:28:17;;;;;;;4.37;2.77;;;-5.90;78.20;;;;;;1924657;74;21593;-54
2023/01/08 09:30:46;;;;;;;2.27;2.08;;;-5.80;79.10;;;;;;1924655;74;21047;-51
2023/01/08 09:33:15;;;;;;;5.30;3.90;;;-5.80;78.80;;;;;;1924676;74;21026;-54
2023/01/08 09:35:45;;;;;;;2.10;2.00;;;-5.70;79.40;;;;;;1924641;74;21019;-55
2023/01/08 09:38:14;;;;;;;6.42;4.05;;;-5.70;80.20;;;;;;1924614;74;21148;-54
2023/01/08 09:40:49;;;;;;;9.13;3.50;;;-5.60;80.60;;;;;;1924691;74;21002;-54
2023/01/08 09:43:20;;;;;;;9.05;5.58;;;-5.50;80.70;;;;;;1887278;76;21084;-53
2023/01/08 09:45:54;;;;;;;6.78;6.15;;;-5.40;80.50;;;;;;1877994;76;21035;-54
2023/01/08 09:48:26;;;;;;;8.33;4.80;;;-5.40;80.10;;;;;;1878144;76;21551;-54
2023/01/08 09:50:55;;;;;;;8.38;4.22;;;-5.30;78.50;;;;;;1877787;76;21458;-54
2023/01/08 09:53:25;;;;;;;5.78;3.52;;;-5.30;78.90;;;;;;1876245;76;21038;-54
2023/01/08 09:55:59;;;;;;;4.70;2.17;;;-5.20;77.30;;;;;;1905281;75;21108;-54
2023/01/08 09:58:36;;;;;;;4.25;3.10;;;-5.20;76.90;;;;;;1905464;75;21035;-54
2023/01/08 10:01:07;;;;;;;3.17;2.05;;;-5.20;77.60;;;;;;1905392;75;21024;-53
2023/01/08 10:04:00;;;;;;;3.00;2.70;;;-5.20;76.90;;;;;;1905307;75;20983;-55
2023/01/08 10:06:30;;;;;;;6.97;4.83;;;-5.20;75.70;;;;;;1905224;74;21015;-53
2023/01/08 10:09:00;;;;;;;4.05;2.33;;;-5.30;76.30;;;;;;1905246;75;21132;-55
2023/01/08 10:11:31;;;;;;;3.62;2.20;;;-5.40;76.90;;;;;;1905116;75;21027;-53
2023/01/08 10:14:01;;;;;;;5.85;3.98;;;-5.40;76.90;;;;;;1905110;75;21160;-54
2023/01/08 10:16:32;;;;;;;5.30;4.35;;;-5.40;76.70;;;;;;1905108;75;21023;-54
2023/01/08 10:19:03;;;;;;;7.55;3.72;;;-5.40;76.80;;;;;;1905145;74;21031;-54
2023/01/08 10:21:38;;;;;;;3.75;2.80;;;-5.40;75.50;;;;;;1905206;75;21027;-54
2023/01/08 10:24:07;;;;;;;;;;;-5.40;75.20;;;;;;1895127;75;21386;-54
2023/01/08 10:26:38;;;;;;;7.65;3.67;;;-5.40;76.30;;;;;;1905242;75;20097;-55
2023/01/08 10:29:12;;;;;;;4.67;2.42;;;-5.30;75.50;;;;;;1905250;75;21039;-54
2023/01/08 10:31:50;;;;;;;3.80;3.33;;;-5.20;74.40;;;;;;1905286;75;21547;-56
2023/01/08 10:34:42;;;;;;;7.80;2.47;;;-5.20;73.40;;;;;;1904335;74;21082;-52
2023/01/08 10:37:28;;;;;;;3.40;2.58;;;-5.30;72.70;;;;;;1905098;75;21086;-53
2023/01/08 10:40:00;;;;;;;2.95;2.65;;;-5.30;72.30;;;;;;1903738;75;21023;-55
2023/01/08 10:42:32;;;;;;;4.78;2.40;;;-5.30;72.10;;;;;;1904686;74;21027;-55
2023/01/08 10:45:03;;;;;;;2.55;2.00;;;-5.30;72.40;;;;;;1905275;75;21540;-54
2023/01/08 10:47:35;;;;;;;7.87;5.78;;;-5.20;73.20;;;;;;1905256;74;21089;-54
2023/01/08 10:50:07;;;;;;;5.45;3.75;;;-5.20;73.10;;;;;;1905280;75;20995;-54
2023/01/08 10:52:36;;;;;;;7.00;3.17;;;-5.20;69.40;;;;;;1904769;74;21462;-54
2023/01/08 10:55:14;;;;;;;5.62;3.52;;;-5.30;70.90;;;;;;1916107;74;21058;-54
2023/01/08 10:57:44;;;;;;;3.25;2.70;;;-5.40;70.60;;;;;;1923752;74;21104;-53
2023/01/08 11:00:24;;;;;;;9.78;5.87;;;-5.50;71.00;;;;;;1923612;74;21018;-53
2023/01/08 11:02:53;;;;;;;7.03;3.67;;;-5.60;71.10;;;;;;1924597;74;21019;-53
2023/01/08 11:05:31;;;;;;;3.20;2.62;;;-5.60;71.20;;;;;;1924689;74;21021;-54
2023/01/08 11:08:02;;;;;;;3.22;2.37;;;-5.50;71.50;;;;;;1924246;74;21199;-54
2023/01/08 11:10:32;;;;;;;5.25;3.20;;;-5.50;71.40;;;;;;1924614;74;21070;-55
2023/01/08 11:13:05;;;;;;;7.12;4.22;;;-5.40;71.80;;;;;;1924586;74;21145;-53
2023/01/08 11:15:40;;;;;;;4.42;3.95;;;-5.40;72.10;;;;;;1924595;74;21515;-54
2023/01/08 11:18:23;;;;;;;9.23;4.58;;;-5.30;72.40;;;;;;1924772;74;21071;-53
2023/01/08 11:20:54;;;;;;;8.05;4.75;;;-5.20;73.00;;;;;;1924556;74;21030;-54
2023/01/08 11:23:25;;;;;;;5.17;4.70;;;-5.10;69.40;;;;;;1924593;74;21068;-53
2023/01/08 11:26:14;;;;;;;9.78;4.08;;;-5.20;70.60;;;;;;1924611;74;21080;-53
2023/01/08 11:28:58;;;;;;;13.05;9.58;;;-5.20;69.40;;;;;;1924566;74;21038;-55
2023/01/08 11:31:38;;;;;;;7.97;3.80;;;-5.20;70.70;;;;;;1924651;74;21036;-53
2023/01/08 11:34:12;;;;;;;2.45;2.27;;;-5.20;70.60;;;;;;1924706;74;21076;-53
2023/01/08 11:36:50;;;;;;;7.67;5.00;;;-5.10;71.10;;;;;;1922234;74;21570;-50
2023/01/08 11:39:20;;;;;;;6.62;3.20;;;-5.00;72.20;;;;;;1924683;74;21074;-55
2023/01/08 11:42:19;;;;;;;3.50;2.92;;;-4.90;69.80;;;;;;1924609;74;21081;-53
2023/01/08 11:45:09;;;;;;;5.33;2.62;;;-4.90;71.00;;;;;;1924329;74;21163;-53
2023/01/08 11:47:53;;;;;;;3.35;2.58;;;-4.80;69.40;;;;;;1923760;74;21140;-55
2023/01/08 11:50:37;;;;;;;7.80;4.62;;;-4.80;70.10;;;;;;1923443;74;21127;-55
2023/01/08 11:53:25;;;;;;;1.98;1.80;;;-4.80;70.40;;;;;;1924460;74;21108;-55
2023/01/08 11:56:13;;;;;;;4.45;3.58;;;-4.80;70.70;;;;;;1911476;74;21063;-55
2023/01/08 11:58:51;;;;;;;6.35;4.47;;;-4.70;69.10;;;;;;1905237;74;21071;-55
2023/01/08 12:01:39;;;;;;;9.80;4.33;;;-4.70;69.10;;;;;;1904674;74;21599;-53
2023/01/08 12:04:44;;;;;;;9.53;5.00;;;-4.80;67.70;;;;;;1905234;75;21070;-54
2023/01/08 12:07:39;;;;;;;9.55;4.10;;;-4.90;68.70;;;;;;1905495;75;21039;-54
2023/01/08 12:10:23;;;;;;;6.85;3.67;;;-4.90;67.80;;;;;;1905458;75;21047;-56
2023/01/08 12:12:58;;;;;;;7.62;4.35;;;-5.00;68.60;;;;;;1905249;75;21011;-56
2023/01/08 12:15:36;;;;;;;3.08;2.50;;;-5.00;68.40;;;;;;1905330;75;21093;-54
2023/01/08 12:18:10;;;;;;;5.25;2.50;;;-5.10;66.60;;;;;;1905199;75;21059;-54
2023/01/08 12:20:52;;;;;;;;;;;-5.10;68.80;;;;;;1903827;74;21096;-53
2023/01/08 12:23:49;;;;;;;4.95;3.40;;;-5.10;69.20;;;;;;1905247;75;20137;-53
2023/01/08 12:26:43;;;;;;;4.50;3.83;;;-5.00;69.10;;;;;;1905321;74;21039;-55
2023/01/08 12:29:17;;;;;;;3.47;2.58;;;-5.00;67.90;;;;;;1905025;74;21485;-54
2023/01/08 12:32:08;;;;;;;6.47;3.52;;;-5.10;68.10;;;;;;1901030;74;21043;-54
2023/01/08 12:34:58;;;;;;;6.03;4.15;;;-5.20;69.00;;;;;;1905213;75;21523;-54
2023/01/08 12:37:32;;;;;;;3.58;2.42;;;-5.30;69.80;;;;;;1905190;75;21474;-55
2023/01/08 12:40:13;;;;;;;2.77;2.25;;;-5.30;70.20;;;;;;1905298;74;21120;-53
2023/01/08 12:42:45;;;;;;;2.85;2.50;;;-5.30;70.70;;;;;;1905182;75;21059;-53
2023/01/08 12:45:26;;;;;;;3.60;2.45;;;-5.20;70.50;;;;;;1905163;75;21019;-55
2023/01/08 12:47:58;;;;;;;5.55;2.17;;;-5.20;70.00;;;;;;1905232;75;21500;-55
2023/01/08 12:50:36;;;;;;;3.70;3.37;;;-5.20;69.90;;;;;;1905231;75;21093;-55
2023/01/08 12:53:10;;;;;;;3.47;2.98;;;-5.20;69.70;;;;;;1905268;74;21085;-54
2023/01/08 12:55:53;;;;;;;5.12;4.10;;;-5.20;71.00;;;;;;1905312;74;21565;-55
2023/01/08 12:58:25;;;;;;;2.52;2.33;;;-5.20;70.40;;;;;;1905160;75;21533;-55
2023/01/08 13:00:56;;;;;;;9.00;4.65;;;-5.20;70.80;;;;;;1905214;75;21007;-54
2023/01/08 13:03:27;;;;;;;4.15;2.80;;;-5.20;70.40;;;;;;1904069;74;21035;-54
2023/01/08 13:06:14;;;;;;;7.60;5.05;;;-5.20;71.20;;;;;;1905270;75;21007;-54
2023/01/08 13:08:53;;;;;;;4.20;2.98;;;-5.10;70.10;;;;;;1905094;75;21043;-55
2023/01/08 13:11:27;;;;;;;7.45;3.02;;;-5.20;69.20;;;;;;1905123;75;21050;-55
2023/01/08 13:14:12;;;;;;;4.97;3.65;;;-5.20;69.40;;;;;;1905320;75;21019;-55
2023/01/08 13:16:44;;;;;;;9.68;5.67;;;-5.20;69.50;;;;;;1905594;75;21043;-55